Time;durP1;ratioP1;P1;durP2;ratioP2;P2;SDS_P1;SDS_P2;PMS_P1;PMS_P2;Temp;Humidity;BMP_temperature;BMP_pressure;BME280_temperature;BME280_humidity;BME280_pressure;Samples;Min_cycle;Max_cycle;Signal;HPM_P1;HPM_P2
2022/01/21 00:02:41;;;;;;;9.30;2.22;;;;;;;;;;5030855;28;20064;-74
2022/01/21 00:05:26;;;;;;;9.07;3.40;;;;;;;;;;5056053;28;20420;-74
2022/01/21 00:08:12;;;;;;;12.55;3.05;;;;;;;;;;5034694;28;20031;-74
2022/01/21 00:10:57;;;;;;;10.93;3.25;;;;;;;;;;5033860;28;20035;-73
2022/01/21 00:13:43;;;;;;;6.88;2.83;;;;;;;;;;5035399;28;20033;-68
2022/01/21 00:16:29;;;;;;;8.02;2.80;;;;;;;;;;5047204;28;20049;-72
2022/01/21 00:19:16;;;;;;;12.02;3.65;;;;;;;;;;5043841;28;20017;-72
2022/01/21 00:31:13;;;;;;;9.95;2.92;;;;;;;;;;5042663;28;20037;-73
2022/01/21 00:34:00;;;;;;;8.98;2.92;;;;;;;;;;5033784;28;20055;-74
2022/01/21 00:36:46;;;;;;;12.18;2.50;;;;;;;;;;5030657;28;20048;-70
2022/01/21 00:39:33;;;;;;;12.75;3.30;;;;;;;;;;5023739;28;20036;-70
2022/01/21 00:45:14;;;;;;;11.38;2.85;;;;;;;;;;5044333;28;20028;-71
2022/01/21 00:47:59;;;;;;;10.95;2.97;;;;;;;;;;5037120;28;20024;-71
2022/01/21 00:50:44;;;;;;;7.70;2.30;;;;;;;;;;5047670;28;20091;-72
2022/01/21 00:53:29;;;;;;;9.10;3.85;;;;;;;;;;5041934;28;20047;-73
2022/01/21 00:56:15;;;;;;;12.05;2.65;;;;;;;;;;5031866;28;20032;-74
2022/01/21 00:59:00;;;;;;;11.30;3.38;;;;;;;;;;5045234;28;20025;-72
2022/01/21 01:01:45;;;;;;;14.02;3.20;;;;;;;;;;5048103;28;20108;-72
2022/01/21 01:04:31;;;;;;;7.03;2.40;;;;;;;;;;5047077;28;20055;-75
2022/01/21 01:07:17;;;;;;;7.35;2.67;;;;;;;;;;5042657;28;20064;-74
2022/01/21 01:10:04;;;;;;;16.92;4.13;;;;;;;;;;5042410;28;20423;-75
2022/01/21 01:21:48;;;;;;;10.65;3.60;;;;;;;;;;5046022;28;20104;-72
2022/01/21 01:27:41;;;;;;;10.93;3.13;;;;;;;;;;5036574;28;20078;-74
2022/01/21 01:30:29;;;;;;;9.57;2.97;;;;;;;;;;5043900;28;20044;-68
2022/01/21 01:33:22;;;;;;;10.93;2.60;;;;;;;;;;5033076;28;20057;-69
2022/01/21 01:36:08;;;;;;;9.20;3.58;;;;;;;;;;5047932;28;20043;-69
2022/01/21 01:39:13;;;;;;;12.32;3.58;;;;;;;;;;5046870;28;20155;-71
2022/01/21 01:42:26;;;;;;;9.70;2.40;;;;;;;;;;5033783;28;20025;-68
2022/01/21 01:51:13;;;;;;;9.65;2.88;;;;;;;;;;5047089;28;20091;-69
2022/01/21 01:54:01;;;;;;;12.23;3.20;;;;;;;;;;5038556;28;20017;-68
2022/01/21 01:56:48;;;;;;;11.52;3.67;;;;;;;;;;5047804;28;20036;-69
2022/01/21 01:59:34;;;;;;;12.65;3.00;;;;;;;;;;5044263;28;20044;-69
2022/01/21 02:02:19;;;;;;;11.32;3.03;;;;;;;;;;5052262;28;20112;-70
2022/01/21 02:05:05;;;;;;;12.05;3.33;;;;;;;;;;5047575;28;20087;-68
2022/01/21 02:07:50;;;;;;;15.13;3.25;;;;;;;;;;5045993;28;20094;-70
2022/01/21 02:10:36;;;;;;;9.85;2.80;;;;;;;;;;5024763;28;20048;-69
2022/01/21 02:13:27;;;;;;;13.52;3.38;;;;;;;;;;5050713;28;20048;-69
2022/01/21 02:22:17;;;;;;;12.82;3.58;;;;;;;;;;5049825;28;20051;-74
2022/01/21 02:25:18;;;;;;;11.73;2.72;;;;;;;;;;5051099;28;20025;-73
2022/01/21 02:28:04;;;;;;;9.27;2.65;;;;;;;;;;5041260;28;20052;-73
2022/01/21 02:30:56;;;;;;;10.40;2.85;;;;;;;;;;5035729;28;20045;-71
2022/01/21 02:33:41;;;;;;;11.68;2.67;;;;;;;;;;5049944;28;20345;-71
2022/01/21 02:36:27;;;;;;;8.45;2.65;;;;;;;;;;5038226;28;20037;-71
2022/01/21 02:39:12;;;;;;;11.02;2.97;;;;;;;;;;5025914;28;20464;-72
2022/01/21 02:41:57;;;;;;;10.35;2.65;;;;;;;;;;5037299;28;20040;-73
2022/01/21 02:44:43;;;;;;;11.07;3.15;;;;;;;;;;5032514;28;20123;-72
2022/01/21 02:47:28;;;;;;;11.52;3.40;;;;;;;;;;5036664;28;20064;-73
2022/01/21 02:50:16;;;;;;;11.63;4.05;;;;;;;;;;5049733;28;20025;-72
2022/01/21 02:53:39;;;;;;;12.48;4.07;;;;;;;;;;5050726;28;20032;-72
2022/01/21 02:56:14;;;;;;;10.70;3.35;;;;;;;;;;5040696;28;20556;-71
2022/01/21 02:58:59;;;;;;;13.43;2.92;;;;;;;;;;5043943;28;20111;-69
2022/01/21 03:01:45;;;;;;;10.05;2.78;;;;;;;;;;5046540;28;20032;-72
2022/01/21 03:07:15;;;;;;;10.55;3.33;;;;;;;;;;5040067;28;20040;-70
2022/01/21 03:10:01;;;;;;;10.68;3.03;;;;;;;;;;5052760;28;20037;-70
2022/01/21 03:12:46;;;;;;;11.25;3.70;;;;;;;;;;5048225;28;20075;-71
2022/01/21 03:15:31;;;;;;;11.43;3.08;;;;;;;;;;5050457;28;20025;-70
2022/01/21 03:18:17;;;;;;;15.10;3.65;;;;;;;;;;5048743;28;20084;-69
2022/01/21 03:21:02;;;;;;;13.77;2.95;;;;;;;;;;5047826;28;20029;-70
2022/01/21 03:23:51;;;;;;;11.80;3.10;;;;;;;;;;5038387;28;20064;-68
2022/01/21 03:26:36;;;;;;;11.27;2.90;;;;;;;;;;5050817;28;20028;-68
2022/01/21 03:29:21;;;;;;;11.82;3.97;;;;;;;;;;5050125;28;20036;-69
2022/01/21 03:32:07;;;;;;;8.60;2.70;;;;;;;;;;5034747;28;20071;-72
2022/01/21 03:34:52;;;;;;;17.48;3.25;;;;;;;;;;5037530;28;20071;-68
2022/01/21 03:37:37;;;;;;;9.20;2.95;;;;;;;;;;5025208;28;20462;-73
2022/01/21 03:40:23;;;;;;;12.13;3.85;;;;;;;;;;5048227;28;20028;-71
2022/01/21 03:43:10;;;;;;;13.82;4.03;;;;;;;;;;5048944;28;20104;-71
2022/01/21 03:45:55;;;;;;;17.73;4.10;;;;;;;;;;5048833;28;20257;-73
2022/01/21 03:48:40;;;;;;;17.05;3.67;;;;;;;;;;5043543;28;20108;-72
2022/01/21 03:51:25;;;;;;;14.02;3.35;;;;;;;;;;5050165;28;20039;-71
2022/01/21 03:54:11;;;;;;;8.25;3.38;;;;;;;;;;5043693;28;20535;-69
2022/01/21 03:56:56;;;;;;;9.07;2.83;;;;;;;;;;5047071;28;20017;-74
2022/01/21 03:59:41;;;;;;;9.27;3.03;;;;;;;;;;5058666;28;20116;-69
2022/01/21 04:02:26;;;;;;;9.15;2.90;;;;;;;;;;5049059;28;20095;-69
2022/01/21 04:05:12;;;;;;;10.77;4.60;;;;;;;;;;5044906;28;20104;-69
2022/01/21 04:07:57;;;;;;;10.85;3.40;;;;;;;;;;5030307;28;20026;-69
2022/01/21 04:10:42;;;;;;;10.45;3.15;;;;;;;;;;5047959;28;20047;-68
2022/01/21 04:13:28;;;;;;;10.70;3.35;;;;;;;;;;5051124;28;20029;-70
2022/01/21 04:16:13;;;;;;;11.38;3.03;;;;;;;;;;5047601;28;20040;-74
2022/01/21 04:18:58;;;;;;;12.77;3.20;;;;;;;;;;5049343;28;20017;-74
2022/01/21 04:21:44;;;;;;;15.35;3.60;;;;;;;;;;5048953;28;20021;-74
2022/01/21 04:24:29;;;;;;;14.00;3.70;;;;;;;;;;5051098;28;20057;-73
2022/01/21 04:27:15;;;;;;;6.47;2.55;;;;;;;;;;5052514;28;20491;-73
2022/01/21 04:30:00;;;;;;;13.15;2.97;;;;;;;;;;5031571;28;20076;-73
2022/01/21 04:32:46;;;;;;;11.90;3.30;;;;;;;;;;5030887;28;20048;-70
2022/01/21 04:35:32;;;;;;;13.20;3.42;;;;;;;;;;5038380;28;20387;-72
2022/01/21 04:38:21;;;;;;;11.70;3.42;;;;;;;;;;5041240;28;20021;-71
2022/01/21 04:47:18;;;;;;;12.85;3.60;;;;;;;;;;5050970;28;20021;-71
2022/01/21 04:50:09;;;;;;;14.23;3.40;;;;;;;;;;5042915;28;20094;-68
2022/01/21 04:52:54;;;;;;;14.80;5.38;;;;;;;;;;5048413;28;20112;-72
2022/01/21 04:55:39;;;;;;;14.32;3.72;;;;;;;;;;5029799;28;20017;-72
2022/01/21 04:58:25;;;;;;;13.07;3.63;;;;;;;;;;5029813;28;20029;-72
2022/01/21 05:01:11;;;;;;;9.50;3.22;;;;;;;;;;5040126;28;20033;-72
2022/01/21 05:03:56;;;;;;;10.30;3.80;;;;;;;;;;5029819;28;20476;-73
2022/01/21 05:06:41;;;;;;;9.75;3.55;;;;;;;;;;5025181;28;20108;-73
2022/01/21 05:09:31;;;;;;;10.60;3.97;;;;;;;;;;5036904;28;20079;-68
2022/01/21 05:12:20;;;;;;;12.85;3.80;;;;;;;;;;5049504;28;20052;-72
2022/01/21 05:17:51;;;;;;;16.73;4.53;;;;;;;;;;5035681;28;20474;-73
2022/01/21 05:20:36;;;;;;;9.32;3.58;;;;;;;;;;5025481;28;20029;-71
2022/01/21 05:23:22;;;;;;;13.93;4.05;;;;;;;;;;5046642;28;20021;-71
2022/01/21 05:26:07;;;;;;;14.82;4.28;;;;;;;;;;5024869;28;20029;-71
2022/01/21 05:28:53;;;;;;;15.82;3.60;;;;;;;;;;5034690;28;20029;-73
2022/01/21 05:31:38;;;;;;;15.60;3.83;;;;;;;;;;5033602;28;20487;-70
2022/01/21 05:34:23;;;;;;;12.75;4.13;;;;;;;;;;5053523;28;20490;-68
2022/01/21 05:37:09;;;;;;;15.10;4.85;;;;;;;;;;5039298;28;20048;-70
2022/01/21 05:39:54;;;;;;;13.85;3.90;;;;;;;;;;5040525;28;20017;-70
2022/01/21 05:42:40;;;;;;;9.15;4.28;;;;;;;;;;5054841;28;20033;-67
2022/01/21 05:48:29;;;;;;;12.38;3.72;;;;;;;;;;5049940;28;20031;-68
2022/01/21 05:51:16;;;;;;;10.25;3.60;;;;;;;;;;5054240;28;20419;-69
2022/01/21 05:54:02;;;;;;;18.58;4.63;;;;;;;;;;5053130;28;20068;-68
2022/01/21 05:56:47;;;;;;;11.63;3.83;;;;;;;;;;5053914;28;20032;-68
2022/01/21 05:59:32;;;;;;;16.42;5.30;;;;;;;;;;5052517;28;20471;-68
2022/01/21 06:02:18;;;;;;;12.65;3.88;;;;;;;;;;5055871;28;20024;-68
2022/01/21 06:05:04;;;;;;;17.38;4.47;;;;;;;;;;5053170;28;20468;-69
2022/01/21 06:07:49;;;;;;;9.13;4.30;;;;;;;;;;5056005;28;20040;-76
2022/01/21 06:10:34;;;;;;;14.63;4.30;;;;;;;;;;5050599;28;20047;-77
2022/01/21 06:13:20;;;;;;;16.45;3.63;;;;;;;;;;5053586;28;20457;-78
2022/01/21 06:16:05;;;;;;;21.95;4.50;;;;;;;;;;5048996;28;20129;-76
2022/01/21 06:18:50;;;;;;;10.32;3.58;;;;;;;;;;5051908;28;20455;-76
2022/01/21 06:21:36;;;;;;;15.63;4.10;;;;;;;;;;5040121;28;20391;-72
2022/01/21 06:24:21;;;;;;;13.68;3.72;;;;;;;;;;5036780;28;20029;-72
2022/01/21 06:27:06;;;;;;;8.27;3.80;;;;;;;;;;5040169;28;20024;-76
2022/01/21 06:29:52;;;;;;;19.38;6.00;;;;;;;;;;5053671;28;20111;-78
2022/01/21 06:32:37;;;;;;;10.20;4.10;;;;;;;;;;5054015;28;20162;-77
2022/01/21 06:35:22;;;;;;;10.98;4.03;;;;;;;;;;5051233;28;20096;-77
2022/01/21 06:38:07;;;;;;;12.45;3.55;;;;;;;;;;5035661;28;20066;-77
2022/01/21 06:40:53;;;;;;;17.42;4.50;;;;;;;;;;5053018;28;20024;-68
2022/01/21 06:43:38;;;;;;;11.70;4.40;;;;;;;;;;5041420;28;20035;-70
2022/01/21 06:46:23;;;;;;;14.43;5.13;;;;;;;;;;5047938;28;20369;-71
2022/01/21 06:49:09;;;;;;;12.20;4.80;;;;;;;;;;5034224;28;20035;-72
2022/01/21 06:51:54;;;;;;;13.95;4.72;;;;;;;;;;5050674;28;20045;-72
2022/01/21 06:54:39;;;;;;;14.68;5.95;;;;;;;;;;5036053;28;20108;-73
2022/01/21 06:57:25;;;;;;;15.38;4.40;;;;;;;;;;5051736;28;20464;-72
2022/01/21 07:00:13;;;;;;;11.65;4.10;;;;;;;;;;5046288;28;20029;-75
2022/01/21 07:02:58;;;;;;;13.48;4.35;;;;;;;;;;5034667;28;20164;-76
2022/01/21 07:05:46;;;;;;;14.35;4.82;;;;;;;;;;5050605;28;20030;-77
2022/01/21 07:08:34;;;;;;;13.68;4.50;;;;;;;;;;5050749;28;20108;-77
2022/01/21 07:11:19;;;;;;;11.57;6.13;;;;;;;;;;5050020;28;20032;-75
2022/01/21 07:14:05;;;;;;;12.20;4.32;;;;;;;;;;5021991;28;20121;-74
2022/01/21 07:16:50;;;;;;;15.45;5.07;;;;;;;;;;5035027;28;20056;-70
2022/01/21 07:19:35;;;;;;;18.13;4.88;;;;;;;;;;5046849;28;20035;-72
2022/01/21 07:22:21;;;;;;;13.73;4.97;;;;;;;;;;5032047;28;20024;-71
2022/01/21 07:25:06;;;;;;;17.95;5.05;;;;;;;;;;5048234;28;20024;-72
2022/01/21 07:27:51;;;;;;;11.55;4.43;;;;;;;;;;5049417;28;20033;-71
2022/01/21 07:30:37;;;;;;;13.90;5.18;;;;;;;;;;5037802;28;20094;-69
2022/01/21 07:33:22;;;;;;;15.25;4.78;;;;;;;;;;5049700;28;20621;-71
2022/01/21 07:36:07;;;;;;;17.92;4.90;;;;;;;;;;5035632;28;20029;-75
2022/01/21 07:38:53;;;;;;;17.20;4.57;;;;;;;;;;5046552;28;20021;-76
2022/01/21 07:41:38;;;;;;;15.68;6.05;;;;;;;;;;5038832;28;20024;-79
2022/01/21 07:44:23;;;;;;;11.93;4.40;;;;;;;;;;5050948;28;20021;-77
2022/01/21 07:47:08;;;;;;;19.58;5.70;;;;;;;;;;5048515;28;20399;-78
2022/01/21 07:49:54;;;;;;;14.85;5.30;;;;;;;;;;5030250;28;20028;-76
2022/01/21 07:52:39;;;;;;;14.05;4.68;;;;;;;;;;5050459;28;20036;-77
2022/01/21 07:55:24;;;;;;;13.68;5.22;;;;;;;;;;5046673;28;20044;-70
2022/01/21 07:58:10;;;;;;;15.63;4.95;;;;;;;;;;5045451;28;20074;-81
2022/01/21 08:00:55;;;;;;;13.77;4.72;;;;;;;;;;5047578;28;20037;-76
2022/01/21 08:03:40;;;;;;;15.52;5.00;;;;;;;;;;5035384;28;20801;-74
2022/01/21 08:06:26;;;;;;;12.48;6.28;;;;;;;;;;5049436;28;20071;-74
2022/01/21 08:09:11;;;;;;;15.77;5.88;;;;;;;;;;5045802;28;20044;-75
2022/01/21 08:11:56;;;;;;;17.70;4.82;;;;;;;;;;5041764;28;20041;-70
2022/01/21 08:14:42;;;;;;;12.45;4.57;;;;;;;;;;5035993;28;20052;-75
2022/01/21 08:17:29;;;;;;;12.38;6.07;;;;;;;;;;5042014;28;20060;-70
2022/01/21 08:20:15;;;;;;;14.23;5.13;;;;;;;;;;5032284;28;20028;-77
2022/01/21 08:23:00;;;;;;;15.45;6.28;;;;;;;;;;5031963;28;20036;-71
2022/01/21 08:25:45;;;;;;;17.45;5.30;;;;;;;;;;5034020;28;20488;-72
2022/01/21 08:28:30;;;;;;;14.75;5.25;;;;;;;;;;5046774;28;20029;-71
2022/01/21 08:31:16;;;;;;;14.50;5.07;;;;;;;;;;5050688;28;20055;-73
2022/01/21 08:34:01;;;;;;;12.68;4.13;;;;;;;;;;5035608;28;20583;-65
2022/01/21 08:36:49;;;;;;;10.63;4.38;;;;;;;;;;5046987;28;20499;-65
2022/01/21 08:39:34;;;;;;;15.85;5.57;;;;;;;;;;5034902;28;20029;-66
2022/01/21 08:42:19;;;;;;;14.35;4.93;;;;;;;;;;5032945;28;20025;-68
2022/01/21 08:45:05;;;;;;;16.60;4.82;;;;;;;;;;5033224;28;20037;-67
2022/01/21 08:47:51;;;;;;;11.25;4.80;;;;;;;;;;5044861;28;20033;-67
2022/01/21 08:50:36;;;;;;;14.80;5.28;;;;;;;;;;5047657;28;20658;-66
2022/01/21 08:53:38;;;;;;;22.90;6.10;;;;;;;;;;5040692;28;20039;-71
2022/01/21 08:56:23;;;;;;;14.52;5.68;;;;;;;;;;5047760;28;20415;-70
2022/01/21 08:59:08;;;;;;;15.43;5.88;;;;;;;;;;5044796;28;20025;-71
2022/01/21 09:01:54;;;;;;;20.13;5.55;;;;;;;;;;5048018;28;20029;-70
2022/01/21 09:04:40;;;;;;;11.75;5.28;;;;;;;;;;5044662;28;20112;-69
2022/01/21 09:07:25;;;;;;;13.98;5.10;;;;;;;;;;5036055;28;20442;-76
2022/01/21 09:10:11;;;;;;;15.13;6.78;;;;;;;;;;5034008;28;20423;-69
2022/01/21 09:12:56;;;;;;;20.33;6.60;;;;;;;;;;5046687;28;20132;-70
2022/01/21 09:15:41;;;;;;;17.42;6.13;;;;;;;;;;5045068;28;20025;-70
2022/01/21 09:18:33;;;;;;;14.68;5.72;;;;;;;;;;5046280;28;20398;-69
2022/01/21 09:21:20;;;;;;;17.88;5.72;;;;;;;;;;5045986;28;20045;-68
2022/01/21 09:24:05;;;;;;;16.20;5.35;;;;;;;;;;5040921;28;20028;-68
2022/01/21 09:26:50;;;;;;;15.75;6.05;;;;;;;;;;5014362;28;20076;-70
2022/01/21 09:29:36;;;;;;;19.95;7.35;;;;;;;;;;5038533;28;20047;-72
2022/01/21 09:32:21;;;;;;;12.32;4.75;;;;;;;;;;5047281;28;20476;-71
2022/01/21 09:35:06;;;;;;;11.50;4.93;;;;;;;;;;5046233;28;20093;-73
2022/01/21 09:37:52;;;;;;;14.55;5.30;;;;;;;;;;5043488;28;20037;-72
2022/01/21 09:40:39;;;;;;;21.70;6.38;;;;;;;;;;5047488;28;20530;-71
2022/01/21 09:43:25;;;;;;;10.98;5.40;;;;;;;;;;5057640;28;20435;-71
2022/01/21 09:46:12;;;;;;;16.85;6.80;;;;;;;;;;5044428;28;20017;-71
2022/01/21 09:49:07;;;;;;;18.45;5.80;;;;;;;;;;5043597;28;20037;-74
2022/01/21 09:51:54;;;;;;;19.05;5.97;;;;;;;;;;5030280;28;20036;-74
2022/01/21 09:54:43;;;;;;;13.13;5.75;;;;;;;;;;5030031;28;20028;-74
2022/01/21 09:57:28;;;;;;;16.02;6.40;;;;;;;;;;5024480;28;20427;-75
2022/01/21 10:00:14;;;;;;;13.98;5.80;;;;;;;;;;5044133;28;20415;-74
2022/01/21 10:03:02;;;;;;;10.57;4.72;;;;;;;;;;5033964;28;20184;-71
2022/01/21 10:05:48;;;;;;;15.98;5.35;;;;;;;;;;5043959;28;20123;-70
2022/01/21 10:08:36;;;;;;;14.55;4.95;;;;;;;;;;5043222;28;20064;-69
2022/01/21 10:11:22;;;;;;;15.35;4.72;;;;;;;;;;5043756;28;20060;-71
2022/01/21 10:14:08;;;;;;;14.52;5.88;;;;;;;;;;5046683;28;20021;-70
2022/01/21 10:16:54;;;;;;;16.48;4.93;;;;;;;;;;5041458;28;20060;-71
2022/01/21 10:19:39;;;;;;;10.93;5.13;;;;;;;;;;5043638;28;20379;-70
2022/01/21 10:22:26;;;;;;;14.55;4.57;;;;;;;;;;5049764;28;20056;-68
2022/01/21 10:25:16;;;;;;;10.57;4.18;;;;;;;;;;5050536;28;20040;-69
2022/01/21 10:28:17;;;;;;;19.98;5.22;;;;;;;;;;5048904;28;20507;-71
2022/01/21 10:31:04;;;;;;;11.70;5.50;;;;;;;;;;5050751;28;20048;-73
2022/01/21 10:33:51;;;;;;;13.50;4.53;;;;;;;;;;5049654;28;20021;-71
2022/01/21 10:36:43;;;;;;;14.95;4.45;;;;;;;;;;5045074;28;20025;-69
2022/01/21 10:39:30;;;;;;;15.25;5.00;;;;;;;;;;5061780;28;20029;-71
2022/01/21 10:42:22;;;;;;;14.13;5.40;;;;;;;;;;5044585;28;20033;-70
2022/01/21 10:45:08;;;;;;;20.67;5.15;;;;;;;;;;5033648;28;20040;-68
2022/01/21 10:47:53;;;;;;;11.15;4.07;;;;;;;;;;5034918;28;20037;-69
2022/01/21 10:50:38;;;;;;;12.40;4.32;;;;;;;;;;5032613;28;20435;-70
2022/01/21 10:53:29;;;;;;;18.33;4.80;;;;;;;;;;5052040;28;20091;-70
2022/01/21 10:56:18;;;;;;;12.68;4.97;;;;;;;;;;5052679;28;20029;-74
2022/01/21 10:59:03;;;;;;;17.85;5.28;;;;;;;;;;5032873;28;20499;-62
2022/01/21 11:01:58;;;;;;;12.88;5.82;;;;;;;;;;5043670;28;20623;-63
2022/01/21 11:04:43;;;;;;;14.30;4.40;;;;;;;;;;5030556;28;20032;-65
2022/01/21 11:07:45;;;;;;;13.38;4.63;;;;;;;;;;5045295;28;20115;-63
2022/01/21 11:10:34;;;;;;;16.55;5.18;;;;;;;;;;5030887;28;20087;-66
2022/01/21 11:13:20;;;;;;;13.57;5.60;;;;;;;;;;5042471;28;20348;-71
2022/01/21 11:16:10;;;;;;;11.48;4.70;;;;;;;;;;5039127;28;20117;-70
2022/01/21 11:18:59;;;;;;;10.30;3.80;;;;;;;;;;5030203;28;20388;-72
2022/01/21 11:21:45;;;;;;;11.50;3.95;;;;;;;;;;5041021;28;20417;-69
2022/01/21 11:24:31;;;;;;;16.15;4.28;;;;;;;;;;5050862;28;20435;-70
2022/01/21 11:27:17;;;;;;;12.25;4.00;;;;;;;;;;5045358;28;20040;-69
2022/01/21 11:30:04;;;;;;;14.82;4.28;;;;;;;;;;5037589;28;20021;-72
2022/01/21 11:32:49;;;;;;;11.40;3.53;;;;;;;;;;5036169;28;20028;-70
2022/01/21 11:35:35;;;;;;;10.45;3.72;;;;;;;;;;5049688;28;20246;-65
2022/01/21 11:38:22;;;;;;;12.68;3.60;;;;;;;;;;5036702;28;20040;-73
2022/01/21 11:41:08;;;;;;;10.70;3.42;;;;;;;;;;5051108;28;20079;-73
2022/01/21 11:43:59;;;;;;;9.48;4.05;;;;;;;;;;5050363;28;20127;-71
2022/01/21 11:47:00;;;;;;;10.77;3.55;;;;;;;;;;5043574;28;20396;-72
2022/01/21 11:49:57;;;;;;;11.70;3.50;;;;;;;;;;5038574;28;20472;-72
2022/01/21 11:52:45;;;;;;;13.52;4.72;;;;;;;;;;5034292;28;20040;-64
2022/01/21 11:55:36;;;;;;;10.43;3.40;;;;;;;;;;5016404;28;20121;-73
2022/01/21 11:58:23;;;;;;;14.90;4.93;;;;;;;;;;5031082;28;20420;-71
2022/01/21 12:01:28;;;;;;;13.10;3.33;;;;;;;;;;5055586;28;20185;-70
2022/01/21 12:04:14;;;;;;;11.02;4.47;;;;;;;;;;5026338;28;20021;-70
2022/01/21 12:07:00;;;;;;;13.30;3.42;;;;;;;;;;5042353;28;20032;-71
2022/01/21 12:09:59;;;;;;;13.43;3.42;;;;;;;;;;5034101;28;20056;-71
2022/01/21 12:16:07;;;;;;;14.05;3.58;;;;;;;;;;5059571;28;20028;-70
2022/01/21 12:19:20;;;;;;;11.45;3.72;;;;;;;;;;5046141;28;20455;-70
2022/01/21 12:22:10;;;;;;;18.00;4.15;;;;;;;;;;5048933;28;20442;-71
2022/01/21 12:25:04;;;;;;;9.70;3.10;;;;;;;;;;5032791;28;20021;-71
2022/01/21 12:28:09;;;;;;;11.15;3.00;;;;;;;;;;5046537;28;20033;-70
2022/01/21 12:30:54;;;;;;;14.20;3.22;;;;;;;;;;5048345;28;20045;-72
2022/01/21 12:33:54;;;;;;;10.43;3.58;;;;;;;;;;5027870;28;20565;-68
2022/01/21 12:36:44;;;;;;;11.10;2.90;;;;;;;;;;5045793;28;20388;-70
2022/01/21 12:39:41;;;;;;;13.20;2.92;;;;;;;;;;5047425;28;20059;-67
2022/01/21 12:42:27;;;;;;;11.95;2.80;;;;;;;;;;5047651;28;20377;-69
2022/01/21 12:45:13;;;;;;;15.98;4.18;;;;;;;;;;5033480;28;20092;-68
2022/01/21 12:47:59;;;;;;;13.25;3.00;;;;;;;;;;5040139;28;20400;-73
2022/01/21 12:50:48;;;;;;;14.20;2.95;;;;;;;;;;5046913;28;20094;-65
2022/01/21 12:53:45;;;;;;;;;;;;;;;;;;5038754;28;20021;-67
2022/01/21 12:56:31;;;;;;;9.30;2.60;;;;;;;;;;5047894;28;19943;-70
2022/01/21 12:59:17;;;;;;;12.57;3.25;;;;;;;;;;5044158;28;20033;-71
2022/01/21 13:02:05;;;;;;;7.13;2.53;;;;;;;;;;5047376;28;20025;-71
2022/01/21 13:05:10;;;;;;;14.77;4.07;;;;;;;;;;5028558;28;20494;-70
2022/01/21 13:07:55;;;;;;;11.90;2.90;;;;;;;;;;5047466;28;20032;-75
2022/01/21 13:10:40;;;;;;;12.90;3.17;;;;;;;;;;5028087;28;20037;-66
2022/01/21 13:13:48;;;;;;;9.23;2.97;;;;;;;;;;5047962;28;20031;-66
2022/01/21 13:16:34;;;;;;;11.80;4.13;;;;;;;;;;5042250;28;20053;-67
2022/01/21 13:19:20;;;;;;;12.88;4.32;;;;;;;;;;5044917;28;20029;-69
2022/01/21 13:22:05;;;;;;;10.93;2.55;;;;;;;;;;5045469;28;20025;-66
2022/01/21 13:25:15;;;;;;;11.30;3.25;;;;;;;;;;5046746;28;20033;-72
2022/01/21 13:28:02;;;;;;;12.10;2.83;;;;;;;;;;5047607;28;20029;-67
2022/01/21 13:30:48;;;;;;;13.02;3.13;;;;;;;;;;5042675;28;20033;-69
2022/01/21 13:33:33;;;;;;;15.35;4.50;;;;;;;;;;5047954;28;20035;-68
2022/01/21 13:36:37;;;;;;;12.52;2.97;;;;;;;;;;5048123;28;20025;-67
2022/01/21 13:39:24;;;;;;;8.50;2.42;;;;;;;;;;5046977;28;20361;-67
2022/01/21 13:42:12;;;;;;;11.45;2.75;;;;;;;;;;5048172;28;20021;-69
2022/01/21 13:45:01;;;;;;;9.40;2.60;;;;;;;;;;5044360;28;20082;-65
2022/01/21 13:47:48;;;;;;;12.25;2.63;;;;;;;;;;5037934;28;20048;-72
2022/01/21 13:50:33;;;;;;;9.10;2.40;;;;;;;;;;5031239;28;20036;-71
2022/01/21 13:53:22;;;;;;;13.20;3.40;;;;;;;;;;5048308;28;20026;-70
2022/01/21 13:56:08;;;;;;;5.47;2.03;;;;;;;;;;5044363;28;20041;-70
2022/01/21 13:58:55;;;;;;;8.48;2.30;;;;;;;;;;5032305;28;20242;-70
2022/01/21 14:01:41;;;;;;;5.18;2.10;;;;;;;;;;5048252;28;20036;-67
2022/01/21 14:04:27;;;;;;;11.82;2.80;;;;;;;;;;5049892;28;20440;-69
2022/01/21 14:07:22;;;;;;;10.27;3.78;;;;;;;;;;5032129;28;20383;-68
2022/01/21 14:10:09;;;;;;;7.78;2.33;;;;;;;;;;5034786;28;20360;-70
2022/01/21 14:12:54;;;;;;;11.70;2.72;;;;;;;;;;5065227;28;20036;-67
2022/01/21 14:15:40;;;;;;;10.43;2.55;;;;;;;;;;5052239;28;20028;-71
2022/01/21 14:18:29;;;;;;;7.18;2.05;;;;;;;;;;5063554;28;20059;-71
2022/01/21 14:21:16;;;;;;;6.78;2.55;;;;;;;;;;5050589;28;20112;-70
2022/01/21 14:24:12;;;;;;;9.05;2.70;;;;;;;;;;5049118;28;20029;-72
2022/01/21 14:26:58;;;;;;;13.13;2.58;;;;;;;;;;5048299;28;20472;-72
2022/01/21 14:29:48;;;;;;;14.40;3.45;;;;;;;;;;5047111;28;20083;-69
2022/01/21 14:32:38;;;;;;;9.82;2.63;;;;;;;;;;5048574;28;20067;-72
2022/01/21 14:35:27;;;;;;;13.20;2.72;;;;;;;;;;5035776;28;20029;-73
2022/01/21 14:38:13;;;;;;;13.93;2.97;;;;;;;;;;5041791;28;20106;-70
2022/01/21 14:40:59;;;;;;;14.18;4.40;;;;;;;;;;5036405;28;20041;-67
2022/01/21 14:43:51;;;;;;;10.35;2.22;;;;;;;;;;5051240;28;22738;-71
2022/01/21 14:46:36;;;;;;;9.00;2.60;;;;;;;;;;5048758;28;20234;-69
2022/01/21 14:49:28;;;;;;;13.18;2.97;;;;;;;;;;5045239;28;20032;-69
2022/01/21 14:55:16;;;;;;;10.90;2.92;;;;;;;;;;5048591;28;20050;-70
2022/01/21 14:58:01;;;;;;;10.55;2.95;;;;;;;;;;5049640;28;20025;-71
2022/01/21 15:00:48;;;;;;;9.73;3.50;;;;;;;;;;5048737;28;20029;-73
2022/01/21 15:03:36;;;;;;;11.40;2.90;;;;;;;;;;5041610;28;20045;-71
2022/01/21 15:06:23;;;;;;;9.10;2.60;;;;;;;;;;5044078;28;20116;-72
2022/01/21 15:09:08;;;;;;;10.30;2.90;;;;;;;;;;5049441;28;20021;-70
2022/01/21 15:11:58;;;;;;;11.48;3.45;;;;;;;;;;5048534;28;20040;-70
2022/01/21 15:14:44;;;;;;;12.05;3.00;;;;;;;;;;5049759;28;20029;-72
2022/01/21 15:17:30;;;;;;;12.35;2.90;;;;;;;;;;5049044;28;20064;-70
2022/01/21 15:20:20;;;;;;;13.15;2.63;;;;;;;;;;5050594;28;20472;-72
2022/01/21 15:23:05;;;;;;;6.38;2.65;;;;;;;;;;5049220;28;20075;-73
2022/01/21 15:25:50;;;;;;;8.07;2.92;;;;;;;;;;5047951;28;20087;-71
2022/01/21 15:28:36;;;;;;;9.15;2.80;;;;;;;;;;5051225;28;20539;-72
2022/01/21 15:31:21;;;;;;;14.95;3.28;;;;;;;;;;5047216;28;21684;-74
2022/01/21 15:34:08;;;;;;;11.40;2.90;;;;;;;;;;5035344;28;20052;-65
2022/01/21 15:36:53;;;;;;;10.27;3.05;;;;;;;;;;5045071;28;20493;-66
2022/01/21 15:39:39;;;;;;;11.55;2.58;;;;;;;;;;5049389;28;20028;-66
2022/01/21 15:42:24;;;;;;;7.72;2.97;;;;;;;;;;5048399;28;20614;-65
2022/01/21 15:45:10;;;;;;;12.82;3.05;;;;;;;;;;5034890;28;20021;-69
2022/01/21 15:47:56;;;;;;;10.93;2.47;;;;;;;;;;5049210;28;20040;-66
2022/01/21 15:50:42;;;;;;;7.97;2.70;;;;;;;;;;5046873;28;20545;-66
2022/01/21 15:53:27;;;;;;;28.67;3.55;;;;;;;;;;5049094;28;20032;-74
2022/01/21 15:56:12;;;;;;;14.80;2.67;;;;;;;;;;5033230;28;20029;-69
2022/01/21 15:58:58;;;;;;;7.35;2.00;;;;;;;;;;5034336;28;20033;-68
2022/01/21 16:01:43;;;;;;;9.98;2.42;;;;;;;;;;5047878;28;20032;-68
2022/01/21 16:04:30;;;;;;;8.93;2.30;;;;;;;;;;5046785;28;20471;-67
2022/01/21 16:07:16;;;;;;;9.93;2.42;;;;;;;;;;5036312;28;20025;-66
2022/01/21 16:10:02;;;;;;;8.02;2.55;;;;;;;;;;5029389;28;20040;-69
2022/01/21 16:12:47;;;;;;;11.52;3.20;;;;;;;;;;5049579;28;20032;-66
2022/01/21 16:15:33;;;;;;;9.23;3.13;;;;;;;;;;5042584;28;20060;-74
2022/01/21 16:18:19;;;;;;;9.10;2.28;;;;;;;;;;5033756;28;20446;-73
2022/01/21 16:21:05;;;;;;;10.00;2.90;;;;;;;;;;5048844;28;20092;-73
2022/01/21 16:23:52;;;;;;;7.80;2.88;;;;;;;;;;5035857;28;20060;-73
2022/01/21 16:26:37;;;;;;;11.40;3.10;;;;;;;;;;5045079;28;20032;-73
2022/01/21 16:29:23;;;;;;;10.90;3.00;;;;;;;;;;5029200;28;20437;-74
2022/01/21 16:32:08;;;;;;;7.78;2.95;;;;;;;;;;5017627;28;20025;-72
2022/01/21 16:34:53;;;;;;;6.18;2.42;;;;;;;;;;5045445;28;20458;-70
2022/01/21 16:37:40;;;;;;;6.78;2.20;;;;;;;;;;5044097;28;20021;-70
2022/01/21 16:40:25;;;;;;;9.77;2.80;;;;;;;;;;5045014;28;20051;-72
2022/01/21 16:43:14;;;;;;;10.27;2.30;;;;;;;;;;5046463;28;20027;-72
2022/01/21 16:45:59;;;;;;;11.23;2.90;;;;;;;;;;5039995;28;20368;-72
2022/01/21 16:48:45;;;;;;;9.82;2.55;;;;;;;;;;5034341;28;20020;-69
2022/01/21 16:51:32;;;;;;;8.93;2.40;;;;;;;;;;5047160;28;20086;-75
2022/01/21 16:54:17;;;;;;;8.75;2.78;;;;;;;;;;5040289;28;20021;-74
2022/01/21 16:57:02;;;;;;;12.57;3.65;;;;;;;;;;5043659;28;20350;-76
2022/01/21 16:59:48;;;;;;;8.93;2.45;;;;;;;;;;5032615;28;20017;-75
2022/01/21 17:02:33;;;;;;;9.23;2.92;;;;;;;;;;5031141;28;20028;-74
2022/01/21 17:05:18;;;;;;;12.60;3.10;;;;;;;;;;5049715;28;20039;-74
2022/01/21 17:08:05;;;;;;;8.23;2.95;;;;;;;;;;5030266;28;20060;-69
2022/01/21 17:10:50;;;;;;;8.88;2.78;;;;;;;;;;5031782;28;20491;-70
2022/01/21 17:13:35;;;;;;;10.82;2.65;;;;;;;;;;5034473;28;20029;-70
2022/01/21 17:16:21;;;;;;;12.85;3.33;;;;;;;;;;5048546;28;20098;-70
2022/01/21 17:19:10;;;;;;;10.85;2.95;;;;;;;;;;5050470;28;20029;-69
2022/01/21 17:21:56;;;;;;;7.57;2.28;;;;;;;;;;5041145;28;20017;-71
2022/01/21 17:24:41;;;;;;;10.57;2.95;;;;;;;;;;5040042;28;20508;-65
2022/01/21 17:27:26;;;;;;;9.00;2.28;;;;;;;;;;5041559;28;20468;-70
2022/01/21 17:30:12;;;;;;;8.65;2.80;;;;;;;;;;5046070;28;20036;-72